createdAt,value
2019-06-20T00:00:00.233Z,4.03
2019-06-20T00:02:30.058Z,3.92
2019-06-20T00:05:00.075Z,2.63
2019-06-20T00:07:29.849Z,3.97
2019-06-20T00:09:59.871Z,2.50
2019-06-20T00:12:29.685Z,8.00
2019-06-20T00:14:59.459Z,2.77
2019-06-20T00:17:29.254Z,4.63
2019-06-20T00:19:59.142Z,5.20
2019-06-20T00:22:29.279Z,3.37
2019-06-20T00:25:02.800Z,6.00
2019-06-20T00:27:31.097Z,2.77
2019-06-20T00:30:01.204Z,3.80
2019-06-20T00:32:31.250Z,3.13
2019-06-20T00:35:01.352Z,3.10
2019-06-20T00:37:31.127Z,3.90
2019-06-20T00:40:01.445Z,3.67
2019-06-20T00:42:31.493Z,3.07
2019-06-20T00:45:01.280Z,3.40
2019-06-20T00:47:31.118Z,3.73
2019-06-20T00:50:00.935Z,10.07
2019-06-20T00:52:31.094Z,3.30
2019-06-20T00:55:00.905Z,4.65
2019-06-20T00:57:30.671Z,6.57
2019-06-20T01:00:00.490Z,10.83
2019-06-20T01:02:30.622Z,4.00
2019-06-20T01:05:00.746Z,6.12
2019-06-20T01:07:31.995Z,4.62
2019-06-20T01:10:02.157Z,6.20
2019-06-20T01:12:32.030Z,4.83
2019-06-20T01:15:02.958Z,4.70
2019-06-20T01:17:34.112Z,6.40
2019-06-20T01:20:04.544Z,7.73
2019-06-20T01:22:34.705Z,6.53
2019-06-20T01:25:04.996Z,7.55
2019-06-20T01:27:34.914Z,4.20
2019-06-20T01:30:08.625Z,8.80
2019-06-20T01:32:39.735Z,7.10
2019-06-20T01:35:10.174Z,5.17
2019-06-20T01:37:40.738Z,4.57
2019-06-20T01:40:10.651Z,7.40
2019-06-20T01:42:40.875Z,7.60
2019-06-20T01:45:10.902Z,4.43
2019-06-20T01:47:40.701Z,5.43
2019-06-20T01:50:10.703Z,2.60
2019-06-20T01:52:40.757Z,3.17
2019-06-20T01:55:10.598Z,3.37
2019-06-20T01:57:40.592Z,7.47
2019-06-20T02:00:12.148Z,3.57
2019-06-20T02:02:41.985Z,8.48
2019-06-20T02:05:12.041Z,6.43
2019-06-20T02:07:41.944Z,3.70
2019-06-20T02:10:12.095Z,6.53
2019-06-20T02:12:41.954Z,5.83
2019-06-20T02:15:11.825Z,4.30
2019-06-20T02:17:41.904Z,5.73
2019-06-20T02:20:26.320Z,6.67
2019-06-20T02:22:56.668Z,4.87
2019-06-20T02:25:26.569Z,4.67
2019-06-20T02:27:56.526Z,7.03
2019-06-20T02:30:26.597Z,6.67
2019-06-20T02:32:56.500Z,6.07
2019-06-20T02:35:27.585Z,6.65
2019-06-20T02:37:57.442Z,4.47
2019-06-20T02:40:27.298Z,4.23
2019-06-20T02:42:57.077Z,5.87
2019-06-20T02:45:27.198Z,4.17
2019-06-20T02:47:57.389Z,5.80
2019-06-20T02:50:27.870Z,5.73
2019-06-20T02:52:58.064Z,7.77
2019-06-20T02:55:27.926Z,5.03
2019-06-20T02:57:58.078Z,6.13
2019-06-20T03:00:52.535Z,6.15
2019-06-20T03:03:22.509Z,3.17
2019-06-20T03:05:52.714Z,3.35
2019-06-20T03:08:22.985Z,4.28
2019-06-20T03:10:53.113Z,6.23
2019-06-20T03:13:23.234Z,6.43
2019-06-20T03:15:53.167Z,5.37
2019-06-20T03:18:22.931Z,8.73
2019-06-20T03:20:52.996Z,3.50
2019-06-20T03:23:23.362Z,4.20
2019-06-20T03:25:53.456Z,9.03
2019-06-20T03:28:23.371Z,6.55
2019-06-20T03:30:53.230Z,8.23
2019-06-20T03:33:23.071Z,7.50
2019-06-20T03:35:52.989Z,5.33
2019-06-20T03:38:22.882Z,4.93
2019-06-20T03:40:52.858Z,4.90
2019-06-20T03:43:23.111Z,7.43
2019-06-20T03:45:53.047Z,6.73
2019-06-20T03:48:23.675Z,7.33
2019-06-20T03:50:53.949Z,13.48
2019-06-20T03:53:23.710Z,7.87
2019-06-20T03:55:54.526Z,11.57
2019-06-20T03:58:24.568Z,6.53
2019-06-20T04:00:54.376Z,6.20
2019-06-20T04:03:24.118Z,8.73
2019-06-20T04:05:53.917Z,8.40
2019-06-20T04:08:23.752Z,7.37
2019-06-20T04:10:53.562Z,6.03
2019-06-20T04:13:23.569Z,5.17
2019-06-20T04:15:53.620Z,4.40
2019-06-20T04:18:23.606Z,3.07
2019-06-20T04:20:54.198Z,6.20
2019-06-20T04:23:23.968Z,3.87
2019-06-20T04:25:53.771Z,3.33
2019-06-20T04:28:23.511Z,2.90
2019-06-20T04:30:53.475Z,4.05
2019-06-20T04:33:23.762Z,4.20
2019-06-20T04:35:53.648Z,12.53
2019-06-20T04:38:24.471Z,7.07
2019-06-20T04:40:54.286Z,7.87
2019-06-20T04:43:24.587Z,6.40
2019-06-20T04:46:03.676Z,3.93
2019-06-20T04:48:33.502Z,8.07
2019-06-20T04:51:03.532Z,4.93
2019-06-20T04:53:33.480Z,8.30
2019-06-20T04:56:05.781Z,6.80
2019-06-20T04:58:35.496Z,8.37
2019-06-20T05:01:05.405Z,6.33
2019-06-20T05:03:35.228Z,4.93
2019-06-20T05:06:05.482Z,6.10
2019-06-20T05:08:35.307Z,6.80
2019-06-20T05:11:05.177Z,6.80
2019-06-20T05:13:39.102Z,5.83
2019-06-20T05:16:09.421Z,16.20
2019-06-20T05:18:39.280Z,5.95
2019-06-20T05:21:09.131Z,8.18
2019-06-20T05:23:39.022Z,6.97
2019-06-20T05:26:08.834Z,5.50
2019-06-20T05:28:38.655Z,3.83
2019-06-20T05:31:08.802Z,9.73
2019-06-20T05:33:38.591Z,8.17
2019-06-20T05:36:08.675Z,3.90
2019-06-20T05:38:38.936Z,4.73
2019-06-20T05:41:08.710Z,5.37
2019-06-20T05:43:39.260Z,6.37
2019-06-20T05:46:12.610Z,14.83
2019-06-20T05:48:43.340Z,5.90
2019-06-20T05:51:14.084Z,4.63
2019-06-20T05:53:45.366Z,8.55
2019-06-20T05:56:15.139Z,6.37
2019-06-20T05:58:46.015Z,6.40
2019-06-20T06:01:15.984Z,4.35
2019-06-20T06:03:45.751Z,5.37
2019-06-20T06:06:15.828Z,3.60
2019-06-20T06:08:45.888Z,9.77
2019-06-20T06:11:16.696Z,4.47
2019-06-20T06:13:46.514Z,4.37
2019-06-20T06:16:25.627Z,5.60
2019-06-20T06:18:48.414Z,3.80
2019-06-20T06:21:18.166Z,8.10
2019-06-20T06:23:48.007Z,4.97
2019-06-20T06:26:18.129Z,5.80
2019-06-20T06:28:47.925Z,3.30
2019-06-20T06:31:19.494Z,3.60
2019-06-20T06:33:49.368Z,3.72
2019-06-20T06:36:19.685Z,4.57
2019-06-20T06:38:49.555Z,8.60
2019-06-20T06:41:20.379Z,3.40
2019-06-20T06:43:50.167Z,5.13
2019-06-20T06:46:19.955Z,7.05
2019-06-20T06:48:50.050Z,3.63
2019-06-20T06:51:20.203Z,2.67
2019-06-20T06:53:50.363Z,3.07
2019-06-20T06:56:20.492Z,4.83
2019-06-20T06:58:50.825Z,4.67
2019-06-20T07:01:20.706Z,9.23
2019-06-20T07:03:50.797Z,4.67
2019-06-20T07:06:20.728Z,3.70
2019-06-20T07:08:50.518Z,5.40
2019-06-20T07:11:20.291Z,6.50
2019-06-20T07:13:50.350Z,4.73
2019-06-20T07:16:20.191Z,5.20
2019-06-20T07:18:50.338Z,4.60
2019-06-20T07:21:20.153Z,5.10
2019-06-20T07:23:50.274Z,2.93
2019-06-20T07:26:20.234Z,8.53
2019-06-20T07:28:51.592Z,4.40
2019-06-20T07:31:21.655Z,1.80
2019-06-20T07:33:51.903Z,2.03
2019-06-20T07:36:22.552Z,3.70
2019-06-20T07:38:52.548Z,2.62
2019-06-20T07:41:22.397Z,4.40
2019-06-20T07:43:53.963Z,4.80
2019-06-20T07:46:24.784Z,4.60
2019-06-20T07:48:54.545Z,3.58
2019-06-20T07:51:24.427Z,3.75
2019-06-20T07:53:54.301Z,5.00
2019-06-20T07:56:24.373Z,3.70
2019-06-20T07:58:54.191Z,9.50
2019-06-20T08:01:24.030Z,5.35
2019-06-20T08:03:53.837Z,4.37
2019-06-20T08:06:23.638Z,2.23
2019-06-20T08:08:53.434Z,6.70
2019-06-20T08:11:23.478Z,7.30
2019-06-20T08:13:53.639Z,4.73
2019-06-20T08:16:23.510Z,7.03
2019-06-20T08:18:53.461Z,3.43
2019-06-20T08:21:23.362Z,3.77
2019-06-20T08:23:53.143Z,3.43
2019-06-20T08:26:23.094Z,2.97
2019-06-20T08:29:07.369Z,2.67
2019-06-20T08:31:24.806Z,3.53
2019-06-20T08:33:55.993Z,3.50
2019-06-20T08:36:27.399Z,2.30
2019-06-20T08:38:58.643Z,2.80
2019-06-20T08:41:29.038Z,4.67
2019-06-20T08:43:59.817Z,6.58
2019-06-20T08:46:29.969Z,6.27
2019-06-20T08:48:59.830Z,6.67
2019-06-20T08:51:30.149Z,5.70
2019-06-20T08:54:01.142Z,6.75
2019-06-20T08:56:32.305Z,4.40
2019-06-20T08:59:02.625Z,4.53
2019-06-20T09:01:32.757Z,6.87
2019-06-20T09:06:32.895Z,6.03
2019-06-20T09:09:04.515Z,5.60
2019-06-20T09:11:34.950Z,6.97
2019-06-20T09:14:04.951Z,9.33
2019-06-20T09:16:34.737Z,4.90
2019-06-20T09:19:04.696Z,6.93
2019-06-20T09:21:34.502Z,6.17
2019-06-20T09:24:12.606Z,5.57
2019-06-20T09:26:42.407Z,5.27
2019-06-20T09:29:12.331Z,5.23
2019-06-20T09:31:42.904Z,6.63
2019-06-20T09:34:12.742Z,4.85
2019-06-20T09:36:42.677Z,5.97
2019-06-20T09:39:12.475Z,5.53
2019-06-20T09:41:42.925Z,5.30
2019-06-20T09:44:12.975Z,5.33
2019-06-20T09:46:43.688Z,5.17
2019-06-20T09:49:13.769Z,5.43
2019-06-20T09:51:43.936Z,5.50
2019-06-20T09:54:13.853Z,5.15
2019-06-20T09:56:47.142Z,5.73
2019-06-20T09:59:27.140Z,5.47
2019-06-20T10:01:48.204Z,6.30
2019-06-20T10:04:21.514Z,6.30
2019-06-20T10:06:50.251Z,6.40
2019-06-20T10:09:20.269Z,6.83
2019-06-20T10:11:50.246Z,6.43
2019-06-20T10:14:20.499Z,6.53
2019-06-20T10:16:52.246Z,7.73
2019-06-20T10:19:22.209Z,8.07
2019-06-20T10:21:52.040Z,7.47
2019-06-20T10:24:22.854Z,8.33
2019-06-20T10:26:53.321Z,11.27
2019-06-20T10:29:24.245Z,8.00
2019-06-20T10:31:54.032Z,10.87
2019-06-20T10:34:23.818Z,9.93
2019-06-20T10:36:54.118Z,11.40
2019-06-20T10:39:23.999Z,12.40
2019-06-20T10:41:53.811Z,11.07
2019-06-20T10:44:23.616Z,14.70
2019-06-20T10:46:53.594Z,13.67
2019-06-20T10:49:23.720Z,14.70
2019-06-20T10:51:53.623Z,10.43
2019-06-20T10:54:23.598Z,13.43
2019-06-20T10:56:53.723Z,8.97
2019-06-20T10:59:23.502Z,9.20
2019-06-20T11:01:53.298Z,10.40
2019-06-20T11:04:23.540Z,8.33
2019-06-20T11:06:53.748Z,8.00
2019-06-20T11:09:24.043Z,7.70
2019-06-20T11:11:53.840Z,7.17
2019-06-20T11:14:24.566Z,9.30
2019-06-20T11:16:55.892Z,9.40
2019-06-20T11:19:25.993Z,9.03
2019-06-20T11:21:56.090Z,7.83
2019-06-20T11:24:25.967Z,7.00
2019-06-20T11:26:56.145Z,9.60
2019-06-20T11:29:26.007Z,8.60
2019-06-20T11:31:56.052Z,6.63
2019-06-20T11:34:26.064Z,6.27
2019-06-20T11:36:56.326Z,5.20
2019-06-20T11:39:26.192Z,8.90
2019-06-20T11:41:56.090Z,7.10
2019-06-20T11:44:25.834Z,8.37
2019-06-20T11:46:55.846Z,6.57
2019-06-20T11:49:25.891Z,5.97
2019-06-20T11:51:57.273Z,6.30
2019-06-20T11:54:27.410Z,5.50
2019-06-20T11:56:57.315Z,5.83
2019-06-20T11:59:27.686Z,7.28
2019-06-20T12:01:57.546Z,6.87
2019-06-20T12:04:27.351Z,7.37
2019-06-20T12:06:57.427Z,6.83
2019-06-20T12:09:27.319Z,6.00
2019-06-20T12:11:57.084Z,6.17
2019-06-20T12:14:27.164Z,6.43
2019-06-20T12:16:57.217Z,5.92
2019-06-20T12:19:26.974Z,8.03
2019-06-20T12:21:56.877Z,6.03
2019-06-20T12:24:26.635Z,8.70
2019-06-20T12:26:56.507Z,5.77
2019-06-20T12:29:26.926Z,8.03
2019-06-20T12:31:56.794Z,6.57
2019-06-20T12:34:27.076Z,11.73
2019-06-20T12:36:57.251Z,6.55
2019-06-20T12:39:27.784Z,8.30
2019-06-20T12:41:57.613Z,8.40
2019-06-20T12:44:27.361Z,6.67
2019-06-20T12:46:57.170Z,8.33
2019-06-20T12:49:27.883Z,8.13
2019-06-20T12:51:57.943Z,6.93
2019-06-20T12:54:30.198Z,7.73
2019-06-20T12:56:59.415Z,7.20
2019-06-20T12:59:29.452Z,6.95
2019-06-20T13:02:00.190Z,9.03
2019-06-20T13:04:30.093Z,6.47
2019-06-20T13:06:59.853Z,8.88
2019-06-20T13:09:30.007Z,7.35
2019-06-20T13:12:00.097Z,8.00
2019-06-20T13:14:30.229Z,8.80
2019-06-20T13:17:00.030Z,7.40
2019-06-20T13:19:30.506Z,9.87
2019-06-20T13:22:00.637Z,9.27
2019-06-20T13:24:30.447Z,10.82
2019-06-20T13:27:00.204Z,9.73
2019-06-20T13:29:30.341Z,9.23
2019-06-20T13:32:04.313Z,8.07
2019-06-20T13:34:32.023Z,12.57
2019-06-20T13:37:01.833Z,10.83
2019-06-20T13:39:31.627Z,10.67
2019-06-20T13:42:01.791Z,7.63
2019-06-20T13:44:31.630Z,10.17
2019-06-20T13:47:01.711Z,7.13
2019-06-20T13:49:31.503Z,8.63
2019-06-20T13:52:01.589Z,6.57
2019-06-20T13:54:31.647Z,7.40
2019-06-20T13:57:02.149Z,9.10
2019-06-20T13:59:32.982Z,5.47
2019-06-20T14:02:07.004Z,5.00
2019-06-20T14:04:35.062Z,5.40
2019-06-20T14:07:05.032Z,6.28
2019-06-20T14:09:35.125Z,7.13
2019-06-20T14:12:06.635Z,6.07
2019-06-20T14:14:38.899Z,7.95
2019-06-20T14:17:08.695Z,5.57
2019-06-20T14:19:39.831Z,9.57
2019-06-20T14:22:10.008Z,5.67
2019-06-20T14:24:40.241Z,11.47
2019-06-20T14:27:10.056Z,7.93
2019-06-20T14:29:39.947Z,7.10
2019-06-20T14:32:21.795Z,8.45
2019-06-20T14:34:43.641Z,7.67
2019-06-20T14:37:13.497Z,6.43
2019-06-20T14:39:44.952Z,6.47
2019-06-20T14:42:15.155Z,6.33
2019-06-20T14:44:46.009Z,6.87
2019-06-20T14:47:18.574Z,6.50
2019-06-20T14:49:49.687Z,7.93
2019-06-20T14:52:19.856Z,7.45
2019-06-20T14:54:49.920Z,6.73
2019-06-20T14:57:20.111Z,7.43
2019-06-20T14:59:49.967Z,8.17
2019-06-20T15:02:20.111Z,7.97
2019-06-20T15:04:50.153Z,8.33
2019-06-20T15:07:20.221Z,9.40
2019-06-20T15:09:51.363Z,8.03
2019-06-20T15:12:21.479Z,7.00
2019-06-20T15:14:51.499Z,6.53
2019-06-20T15:17:21.770Z,6.57
2019-06-20T15:19:51.569Z,7.53
2019-06-20T15:22:21.345Z,6.17
2019-06-20T15:24:53.550Z,7.22
2019-06-20T15:27:23.862Z,12.35
2019-06-20T15:29:54.405Z,6.97
2019-06-20T15:32:25.508Z,7.92
2019-06-20T15:34:55.683Z,8.43
2019-06-20T15:37:26.118Z,7.95
2019-06-20T15:39:57.500Z,9.95
2019-06-20T15:42:33.784Z,7.70
2019-06-20T15:45:04.135Z,9.13
2019-06-20T15:47:34.129Z,9.40
2019-06-20T15:50:04.249Z,7.83
2019-06-20T15:52:34.142Z,7.77
2019-06-20T15:55:04.123Z,8.20
2019-06-20T15:57:34.405Z,8.90
2019-06-20T16:00:04.621Z,8.80
2019-06-20T16:02:34.955Z,8.17
2019-06-20T16:05:05.705Z,7.70
2019-06-20T16:07:37.449Z,8.67
2019-06-20T16:10:07.319Z,7.67
2019-06-20T16:12:37.887Z,9.07
2019-06-20T16:15:08.838Z,8.17
2019-06-20T16:17:38.901Z,11.77
2019-06-20T16:20:09.150Z,8.63
2019-06-20T16:22:38.993Z,8.78
2019-06-20T16:25:09.136Z,8.30
2019-06-20T16:27:38.995Z,8.43
2019-06-20T16:30:09.188Z,8.10
2019-06-20T16:32:39.636Z,10.36
2019-06-20T16:35:10.097Z,9.20
2019-06-20T16:37:40.004Z,8.65
2019-06-20T16:40:11.348Z,8.67
2019-06-20T16:42:41.241Z,10.63
2019-06-20T16:45:11.569Z,8.77
2019-06-20T16:47:41.409Z,10.27
2019-06-20T16:50:11.402Z,10.60
2019-06-20T16:52:41.291Z,10.13
2019-06-20T16:55:11.336Z,9.33
2019-06-20T16:57:41.185Z,8.60
2019-06-20T17:00:11.323Z,7.63
2019-06-20T17:02:41.076Z,8.67
2019-06-20T17:05:11.142Z,6.73
2019-06-20T17:07:40.973Z,9.30
2019-06-20T17:10:10.855Z,6.23
2019-06-20T17:12:40.687Z,8.00
2019-06-20T17:15:10.515Z,6.92
2019-06-20T17:17:40.358Z,7.10
2019-06-20T17:20:11.651Z,7.03
2019-06-20T17:22:43.039Z,12.03
2019-06-20T17:25:13.653Z,7.33
2019-06-20T17:27:43.761Z,8.37
2019-06-20T17:30:14.456Z,7.80
2019-06-20T17:32:44.472Z,8.25
2019-06-20T17:35:14.536Z,7.57
2019-06-20T17:37:45.127Z,10.27
2019-06-20T17:40:16.848Z,8.63
2019-06-20T17:42:46.831Z,8.53
2019-06-20T17:45:16.856Z,7.20
2019-06-20T17:47:47.094Z,9.57
2019-06-20T17:50:17.505Z,8.20
2019-06-20T17:52:47.747Z,9.77
2019-06-20T17:55:18.420Z,8.10
2019-06-20T17:57:49.298Z,7.83
2019-06-20T18:00:19.237Z,7.37
2019-06-20T18:02:49.082Z,7.83
2019-06-20T18:05:19.118Z,7.97
2019-06-20T18:07:49.010Z,7.62
2019-06-20T18:10:19.250Z,13.63
2019-06-20T18:12:50.280Z,8.90
2019-06-20T18:15:21.083Z,8.50
2019-06-20T18:17:51.453Z,7.97
2019-06-20T18:20:21.414Z,8.35
2019-06-20T18:22:52.662Z,7.63
2019-06-20T18:25:22.701Z,7.40
2019-06-20T18:27:52.937Z,12.13
2019-06-20T18:30:33.869Z,8.10
2019-06-20T18:33:03.738Z,8.23
2019-06-20T18:35:34.788Z,8.58
2019-06-20T18:38:04.834Z,7.13
2019-06-20T18:40:35.381Z,9.77
2019-06-20T18:43:05.533Z,7.17
2019-06-20T18:45:35.509Z,9.53
2019-06-20T18:48:05.403Z,7.50
2019-06-20T18:50:35.407Z,9.23
2019-06-20T18:53:05.723Z,9.63
2019-06-20T18:55:35.764Z,7.63
2019-06-20T18:58:05.659Z,6.97
2019-06-20T19:00:36.174Z,7.43
2019-06-20T19:03:06.480Z,9.97
2019-06-20T19:05:36.929Z,10.10
2019-06-20T19:08:07.725Z,10.03
2019-06-20T19:10:39.707Z,6.93
2019-06-20T19:13:13.087Z,6.70
2019-06-20T19:15:45.402Z,7.03
2019-06-20T19:18:16.218Z,7.10
2019-06-20T19:20:47.608Z,8.20
2019-06-20T19:23:20.838Z,7.80
2019-06-20T19:25:51.614Z,10.47
2019-06-20T19:28:24.316Z,12.43
2019-06-20T19:30:56.254Z,21.23
2019-06-20T19:33:26.663Z,25.83
2019-06-20T19:35:59.057Z,14.93
2019-06-20T19:38:31.447Z,17.80
2019-06-20T19:41:01.704Z,18.40
2019-06-20T19:43:32.751Z,16.33
2019-06-20T19:46:02.881Z,12.63
2019-06-20T19:48:36.434Z,15.83
2019-06-20T19:51:04.801Z,18.07
2019-06-20T19:53:35.030Z,16.07
2019-06-20T19:56:05.706Z,17.30
2019-06-20T19:58:35.896Z,18.10
2019-06-20T20:01:05.909Z,19.55
2019-06-20T20:03:36.303Z,13.73
2019-06-20T20:06:07.794Z,11.50
2019-06-20T20:08:37.918Z,11.13
2019-06-20T20:11:07.779Z,11.43
2019-06-20T20:13:38.375Z,13.43
2019-06-20T20:16:08.802Z,7.10
2019-06-20T20:18:39.347Z,9.60
2019-06-20T20:21:09.493Z,8.20
2019-06-20T20:23:39.360Z,7.67
2019-06-20T20:26:09.311Z,6.60
2019-06-20T20:28:39.359Z,6.63
2019-06-20T20:31:09.195Z,5.47
2019-06-20T20:33:39.010Z,9.37
2019-06-20T20:36:23.754Z,9.20
2019-06-20T20:38:40.356Z,9.13
2019-06-20T20:41:10.291Z,15.40
2019-06-20T20:43:40.386Z,7.90
2019-06-20T20:46:11.009Z,7.67
2019-06-20T20:48:41.081Z,7.97
2019-06-20T20:51:10.922Z,8.37
2019-06-20T20:53:41.997Z,9.77
2019-06-20T20:56:11.764Z,9.80
2019-06-20T20:58:41.543Z,10.87
2019-06-20T21:01:24.056Z,11.63
2019-06-20T21:03:53.846Z,11.93
2019-06-20T21:06:23.674Z,10.77
2019-06-20T21:08:53.616Z,8.63
2019-06-20T21:11:23.548Z,8.00
2019-06-20T21:13:53.352Z,8.10
2019-06-20T21:16:24.405Z,7.03
2019-06-20T21:18:54.218Z,8.20
2019-06-20T21:21:25.055Z,12.73
2019-06-20T21:23:55.964Z,6.90
2019-06-20T21:26:27.466Z,9.37
2019-06-20T21:28:57.432Z,8.90
2019-06-20T21:31:27.514Z,9.50
2019-06-20T21:33:57.309Z,12.70
2019-06-20T21:36:27.336Z,8.83
2019-06-20T21:38:57.596Z,11.80
2019-06-20T21:41:28.251Z,12.40
2019-06-20T21:43:58.179Z,13.87
2019-06-20T21:46:29.273Z,12.17
2019-06-20T21:48:59.429Z,11.23
2019-06-20T21:51:29.475Z,10.32
2019-06-20T21:53:59.530Z,10.33
2019-06-20T21:56:29.680Z,11.73
2019-06-20T21:58:59.583Z,14.57
2019-06-20T22:01:29.991Z,13.05
2019-06-20T22:04:00.677Z,12.65
2019-06-20T22:06:30.676Z,11.03
2019-06-20T22:09:00.660Z,10.33
2019-06-20T22:11:32.398Z,15.13
2019-06-20T22:14:02.829Z,12.37
2019-06-20T22:16:32.832Z,9.13
2019-06-20T22:19:02.985Z,10.67
2019-06-20T22:21:32.924Z,10.67
2019-06-20T22:24:02.952Z,15.08
2019-06-20T22:26:34.180Z,13.37
2019-06-20T22:29:04.048Z,9.10
2019-06-20T22:31:34.124Z,11.30
2019-06-20T22:34:04.082Z,12.47
2019-06-20T22:36:40.377Z,12.13
2019-06-20T22:39:07.719Z,11.67
2019-06-20T22:41:37.943Z,13.93
2019-06-20T22:44:07.743Z,15.77
2019-06-20T22:46:37.545Z,12.77
2019-06-20T22:49:07.706Z,15.58
2019-06-20T22:51:38.759Z,15.08
2019-06-20T22:54:09.179Z,15.07
2019-06-20T22:56:39.162Z,17.73
2019-06-20T22:59:08.995Z,15.53
2019-06-20T23:01:38.979Z,13.98
2019-06-20T23:04:09.040Z,15.57
2019-06-20T23:06:55.113Z,16.03
2019-06-20T23:09:11.328Z,15.70
2019-06-20T23:11:41.445Z,17.70
2019-06-20T23:14:11.353Z,15.37
2019-06-20T23:16:42.293Z,18.47
2019-06-20T23:19:12.109Z,19.47
2019-06-20T23:21:42.112Z,17.23
2019-06-20T23:24:13.013Z,21.17
2019-06-20T23:26:46.076Z,16.93
2019-06-20T23:29:24.262Z,18.10
2019-06-20T23:31:54.852Z,24.93
2019-06-20T23:34:24.913Z,14.83
2019-06-20T23:36:55.021Z,21.57
2019-06-20T23:39:28.198Z,19.60
2019-06-20T23:41:56.783Z,18.30
2019-06-20T23:44:26.663Z,16.23
2019-06-20T23:46:56.566Z,16.10
2019-06-20T23:49:27.241Z,15.43
2019-06-20T23:52:08.429Z,14.83
2019-06-20T23:54:38.237Z,15.50
2019-06-20T23:57:08.370Z,14.63
2019-06-20T23:59:38.321Z,16.73
